Time;durP1;ratioP1;P1;durP2;ratioP2;P2;SDS_P1;SDS_P2;PMS_P1;PMS_P2;Temp;Humidity;BMP_temperature;BMP_pressure;BME280_temperature;BME280_humidity;BME280_pressure;Samples;Min_cycle;Max_cycle;Signal;HPM_P1;HPM_P2
2022/07/18 00:01:31;;;;;;;3.13;2.70;;;19.50;46.20;;;;;;5079637;28;20511;-50
2022/07/18 00:03:57;;;;;;;5.73;2.70;;;19.50;46.20;;;;;;5078818;28;20235;-49
2022/07/18 00:06:22;;;;;;;3.23;2.53;;;19.40;46.40;;;;;;5078090;28;20435;-48
2022/07/18 00:08:48;;;;;;;3.00;2.70;;;19.40;46.50;;;;;;5078415;28;20179;-51
2022/07/18 00:11:14;;;;;;;2.90;2.70;;;19.40;46.60;;;;;;5077189;28;20592;-50
2022/07/18 00:13:39;;;;;;;2.60;2.40;;;19.30;46.50;;;;;;5078125;28;20666;-49
2022/07/18 00:16:05;;;;;;;2.40;2.20;;;19.30;46.50;;;;;;5077328;28;20181;-49
2022/07/18 00:18:31;;;;;;;4.10;2.70;;;19.30;46.50;;;;;;5077964;28;20535;-50
2022/07/18 00:20:57;;;;;;;2.53;2.30;;;19.30;46.60;;;;;;5079331;28;20184;-51
2022/07/18 00:23:22;;;;;;;2.83;2.30;;;19.30;46.70;;;;;;5079287;28;20178;-50
2022/07/18 00:25:48;;;;;;;2.53;2.20;;;19.20;46.80;;;;;;5077855;28;20426;-50
2022/07/18 00:28:14;;;;;;;2.27;2.07;;;19.20;46.80;;;;;;5078505;28;20175;-49
2022/07/18 00:30:40;;;;;;;3.00;2.53;;;19.20;46.80;;;;;;5078921;28;20897;-50
2022/07/18 00:33:06;;;;;;;3.97;2.50;;;19.20;46.80;;;;;;5078675;28;20573;-51
2022/07/18 00:35:31;;;;;;;2.80;2.60;;;19.20;46.90;;;;;;5078760;28;20512;-50
2022/07/18 00:37:57;;;;;;;3.40;2.23;;;19.10;46.90;;;;;;5079155;28;20187;-50
2022/07/18 00:40:23;;;;;;;2.67;2.47;;;19.10;47.10;;;;;;5077979;28;20272;-48
2022/07/18 00:42:49;;;;;;;4.13;2.70;;;19.10;47.30;;;;;;5078998;28;20192;-51
2022/07/18 00:45:15;;;;;;;2.73;2.53;;;19.00;47.40;;;;;;5078050;28;20277;-50
2022/07/18 00:47:40;;;;;;;2.60;2.30;;;19.00;47.50;;;;;;5078186;28;20611;-50
2022/07/18 00:50:08;;;;;;;2.37;2.10;;;18.90;47.60;;;;;;5078434;28;20245;-51
2022/07/18 00:52:34;;;;;;;2.53;2.23;;;18.90;47.70;;;;;;5078564;28;20185;-51
2022/07/18 00:55:00;;;;;;;3.07;2.77;;;18.90;47.80;;;;;;5078067;28;20436;-49
2022/07/18 00:57:27;;;;;;;2.83;2.47;;;18.80;47.80;;;;;;5078796;28;20415;-49
2022/07/18 01:02:39;;;;;;;3.07;2.77;;;18.80;47.90;;;;;;5077747;28;20462;-50
2022/07/18 01:05:06;;;;;;;2.90;2.40;;;18.80;48.00;;;;;;5078339;28;20429;-50
2022/07/18 01:07:33;;;;;;;3.07;2.30;;;18.80;48.00;;;;;;5078021;28;20706;-50
2022/07/18 01:09:59;;;;;;;2.50;2.13;;;18.80;48.10;;;;;;5077894;28;20486;-52
2022/07/18 01:12:26;;;;;;;2.47;2.20;;;18.80;48.20;;;;;;5076861;28;20432;-50
2022/07/18 01:14:52;;;;;;;2.67;2.47;;;18.70;48.20;;;;;;5078187;28;20182;-49
2022/07/18 01:20:39;;;;;;;2.73;2.23;;;18.70;48.30;;;;;;5058057;28;20531;-52
2022/07/18 01:23:05;;;;;;;3.03;2.73;;;18.70;48.40;;;;;;5073171;28;20443;-50
2022/07/18 01:25:31;;;;;;;2.90;2.50;;;18.70;48.50;;;;;;5078408;28;20181;-50
2022/07/18 01:27:57;;;;;;;3.17;2.43;;;18.60;48.70;;;;;;5077599;28;20186;-50
2022/07/18 01:30:23;;;;;;;3.23;2.33;;;18.60;48.90;;;;;;5077521;28;20485;-49
2022/07/18 01:32:59;;;;;;;2.77;2.50;;;18.60;49.20;;;;;;5078255;28;20237;-51
2022/07/18 01:35:26;;;;;;;2.67;2.47;;;18.50;49.10;;;;;;5077213;28;20423;-49
2022/07/18 01:37:57;;;;;;;2.90;2.60;;;18.50;49.10;;;;;;5077610;28;20423;-51
2022/07/18 01:40:23;;;;;;;2.80;2.50;;;18.50;49.20;;;;;;5076398;28;20497;-51
2022/07/18 01:42:49;;;;;;;3.40;2.77;;;18.40;49.30;;;;;;5078100;28;20855;-49
2022/07/18 01:45:15;;;;;;;2.70;2.50;;;18.40;49.30;;;;;;5077481;28;20456;-50
2022/07/18 01:47:51;;;;;;;3.10;2.80;;;18.40;49.30;;;;;;5077543;28;20195;-51
2022/07/18 01:50:17;;;;;;;3.17;2.87;;;18.40;49.30;;;;;;5076808;28;20729;-51
2022/07/18 01:52:43;;;;;;;2.90;2.27;;;18.40;49.40;;;;;;5077877;28;20417;-51
2022/07/18 01:55:09;;;;;;;3.43;2.87;;;18.30;49.90;;;;;;5077245;28;20442;-50
2022/07/18 01:57:37;;;;;;;3.07;2.60;;;18.40;49.60;;;;;;5077934;28;20424;-50
2022/07/18 02:00:09;;;;;;;5.60;2.23;;;18.30;49.60;;;;;;5077846;28;20429;-53
2022/07/18 02:02:34;;;;;;;3.07;2.33;;;18.30;49.60;;;;;;5076654;28;20432;-50
2022/07/18 02:05:00;;;;;;;3.53;2.43;;;18.30;49.80;;;;;;5077221;28;20526;-50
2022/07/18 02:07:31;;;;;;;3.70;2.57;;;18.20;49.90;;;;;;5077143;28;20564;-51
2022/07/18 02:09:57;;;;;;;3.63;2.77;;;18.20;50.10;;;;;;5076633;28;20221;-52
2022/07/18 02:12:23;;;;;;;3.10;2.73;;;18.20;50.20;;;;;;5077412;28;20433;-50
2022/07/18 02:14:49;;;;;;;3.60;2.60;;;18.20;50.20;;;;;;5075536;28;20543;-50
2022/07/18 02:17:15;;;;;;;2.73;2.53;;;18.20;50.20;;;;;;5077206;28;20791;-49
2022/07/18 02:19:40;;;;;;;2.90;2.60;;;18.10;50.20;;;;;;5076934;28;20503;-53
2022/07/18 02:22:06;;;;;;;3.03;2.73;;;18.10;50.40;;;;;;5077083;28;20185;-50
2022/07/18 02:24:32;;;;;;;3.30;2.43;;;18.10;50.50;;;;;;5077321;28;20558;-50
2022/07/18 02:26:58;;;;;;;5.40;2.53;;;18.00;50.50;;;;;;5077148;28;20428;-51
2022/07/18 02:29:24;;;;;;;3.00;2.70;;;18.00;50.60;;;;;;5077057;28;20736;-50
2022/07/18 02:31:50;;;;;;;4.07;2.87;;;18.00;50.80;;;;;;5076096;28;20480;-50
2022/07/18 02:34:15;;;;;;;2.80;2.50;;;18.00;50.80;;;;;;5075871;28;20412;-50
2022/07/18 02:36:42;;;;;;;4.30;2.40;;;18.00;50.90;;;;;;5075687;28;20577;-50
2022/07/18 02:39:08;;;;;;;2.53;2.33;;;17.90;51.00;;;;;;5075984;28;20182;-48
2022/07/18 02:41:34;;;;;;;3.07;2.77;;;18.00;51.10;;;;;;5075680;28;20499;-50
2022/07/18 02:44:01;;;;;;;4.17;3.43;;;18.00;51.30;;;;;;5075715;28;20803;-50
2022/07/18 02:46:26;;;;;;;3.60;2.83;;;17.90;51.40;;;;;;5075888;28;20447;-49
2022/07/18 02:48:52;;;;;;;4.27;2.87;;;18.00;51.70;;;;;;5076784;28;20421;-49
2022/07/18 02:51:18;;;;;;;3.20;2.90;;;17.90;51.80;;;;;;5077071;28;20507;-50
2022/07/18 02:53:44;;;;;;;3.27;2.97;;;17.90;52.00;;;;;;5076945;28;20484;-53
2022/07/18 02:56:09;;;;;;;3.00;2.70;;;17.80;52.00;;;;;;5076875;28;20173;-50
2022/07/18 02:58:35;;;;;;;3.37;3.07;;;17.80;52.20;;;;;;5077163;28;20242;-51
2022/07/18 03:01:01;;;;;;;3.13;2.83;;;17.80;52.40;;;;;;5076645;28;20187;-49
2022/07/18 03:03:26;;;;;;;4.80;2.93;;;17.80;52.50;;;;;;5079198;28;20184;-49
2022/07/18 03:05:52;;;;;;;4.47;3.03;;;17.70;52.50;;;;;;5079708;28;20629;-52
2022/07/18 03:08:18;;;;;;;3.57;2.80;;;17.70;52.60;;;;;;5080903;28;20182;-51
2022/07/18 03:10:43;;;;;;;2.97;2.67;;;17.70;52.70;;;;;;5079708;28;20498;-49
2022/07/18 03:13:10;;;;;;;3.20;3.00;;;17.70;52.60;;;;;;5080313;28;20163;-48
2022/07/18 03:15:36;;;;;;;3.70;3.40;;;17.60;52.60;;;;;;5080278;28;20180;-46
2022/07/18 03:18:02;;;;;;;3.40;3.10;;;17.50;52.90;;;;;;5079500;28;20450;-45
2022/07/18 03:20:27;;;;;;;3.23;2.80;;;17.30;53.70;;;;;;5079538;28;20423;-49
2022/07/18 03:22:53;;;;;;;3.73;3.00;;;17.10;53.90;;;;;;5080200;28;20187;-49
2022/07/18 03:25:19;;;;;;;3.70;3.40;;;16.90;54.50;;;;;;5080349;28;20197;-48
2022/07/18 03:27:44;;;;;;;3.60;3.20;;;16.70;55.10;;;;;;5079137;28;20511;-49
2022/07/18 03:30:11;;;;;;;3.53;2.93;;;16.50;55.70;;;;;;5078845;28;20226;-47
2022/07/18 03:32:36;;;;;;;3.47;3.17;;;16.40;56.50;;;;;;5079831;28;20241;-48
2022/07/18 03:35:02;;;;;;;3.60;3.03;;;16.30;58.00;;;;;;5080329;28;20426;-49
2022/07/18 03:37:27;;;;;;;6.00;3.73;;;16.20;58.70;;;;;;5078818;28;20589;-46
2022/07/18 03:39:53;;;;;;;4.40;3.40;;;16.00;59.10;;;;;;5078479;28;20217;-44
2022/07/18 03:42:19;;;;;;;4.13;3.83;;;15.90;59.50;;;;;;5079589;28;20180;-46
2022/07/18 03:44:45;;;;;;;4.03;3.73;;;15.90;60.30;;;;;;5080075;28;20248;-46
2022/07/18 03:47:11;;;;;;;3.97;3.57;;;15.80;60.80;;;;;;5078474;28;20197;-46
2022/07/18 03:49:36;;;;;;;3.47;3.17;;;15.80;62.00;;;;;;5066737;28;20890;-47
2022/07/18 03:52:02;;;;;;;4.13;3.50;;;15.80;64.70;;;;;;5079192;28;20170;-47
2022/07/18 03:54:28;;;;;;;4.23;3.83;;;15.70;66.10;;;;;;5077815;28;20231;-47
2022/07/18 03:56:54;;;;;;;5.73;3.60;;;15.70;66.40;;;;;;5078284;28;20453;-49
2022/07/18 03:59:19;;;;;;;3.40;3.10;;;15.60;67.80;;;;;;5077425;28;20500;-48
2022/07/18 04:01:45;;;;;;;3.60;3.10;;;15.60;68.20;;;;;;5077133;28;20211;-47
2022/07/18 04:04:10;;;;;;;4.43;3.57;;;15.60;68.20;;;;;;5078548;28;20171;-46
2022/07/18 04:06:36;;;;;;;3.80;3.40;;;15.60;68.40;;;;;;5078335;28;20188;-47
2022/07/18 04:09:02;;;;;;;3.67;3.37;;;15.60;68.50;;;;;;5078303;28;20182;-47
2022/07/18 04:11:27;;;;;;;3.77;3.47;;;15.60;70.80;;;;;;5077485;28;20205;-47
2022/07/18 04:13:54;;;;;;;5.10;3.90;;;15.60;72.50;;;;;;5077942;28;20256;-47
2022/07/18 04:16:20;;;;;;;5.27;3.90;;;15.60;72.30;;;;;;5078754;28;20182;-47
2022/07/18 04:18:46;;;;;;;6.90;4.27;;;15.60;72.60;;;;;;5076911;28;20423;-46
2022/07/18 04:21:12;;;;;;;4.07;3.77;;;15.60;73.00;;;;;;5077127;28;20469;-47
2022/07/18 04:23:38;;;;;;;6.00;4.20;;;15.60;73.70;;;;;;5076370;28;20417;-46
2022/07/18 04:26:04;;;;;;;4.30;3.90;;;15.60;73.90;;;;;;5074462;28;20746;-45
2022/07/18 04:28:30;;;;;;;4.27;3.87;;;15.70;73.50;;;;;;5075898;28;20469;-47
2022/07/18 04:30:55;;;;;;;4.20;3.80;;;15.70;73.20;;;;;;5058790;28;20235;-47
2022/07/18 04:33:21;;;;;;;4.77;3.40;;;15.80;73.50;;;;;;5075938;28;20418;-45
2022/07/18 04:35:48;;;;;;;4.43;3.97;;;15.80;74.80;;;;;;5073739;28;20290;-45
2022/07/18 04:38:14;;;;;;;4.83;4.30;;;15.80;74.20;;;;;;5074362;28;20735;-45
2022/07/18 04:40:39;;;;;;;4.37;3.80;;;16.00;75.00;;;;;;5074015;28;20477;-45
2022/07/18 04:43:06;;;;;;;3.83;3.30;;;16.00;75.40;;;;;;5075573;28;20234;-47
2022/07/18 04:45:31;;;;;;;5.23;3.90;;;16.00;73.80;;;;;;5075500;28;20212;-47
2022/07/18 04:47:57;;;;;;;6.00;4.27;;;16.10;73.20;;;;;;5075532;28;20439;-48
2022/07/18 04:50:24;;;;;;;6.57;3.80;;;16.10;72.90;;;;;;5075940;28;20643;-46
2022/07/18 04:52:50;;;;;;;4.87;3.40;;;16.20;72.60;;;;;;5073994;28;20200;-46
2022/07/18 04:55:18;;;;;;;4.90;4.03;;;16.20;72.80;;;;;;5074583;28;20430;-46
2022/07/18 04:57:43;;;;;;;4.40;4.00;;;16.30;72.70;;;;;;5074700;28;20702;-46
2022/07/18 05:00:12;;;;;;;7.00;3.97;;;16.30;71.70;;;;;;5074288;28;20512;-46
2022/07/18 05:02:41;;;;;;;4.13;3.33;;;16.40;71.50;;;;;;5071632;28;20202;-45
2022/07/18 05:05:09;;;;;;;4.87;4.17;;;16.40;71.40;;;;;;5074182;28;20429;-45
2022/07/18 05:07:35;;;;;;;4.80;4.40;;;16.50;71.30;;;;;;5072339;28;20414;-46
2022/07/18 05:10:03;;;;;;;5.03;3.70;;;16.60;71.00;;;;;;5070635;28;20434;-44
2022/07/18 05:12:29;;;;;;;5.20;4.20;;;16.60;71.00;;;;;;5073629;28;20203;-46
2022/07/18 05:14:55;;;;;;;4.57;4.17;;;16.70;70.70;;;;;;5073440;28;20672;-45
2022/07/18 05:17:20;;;;;;;3.93;3.30;;;16.70;70.40;;;;;;5073735;28;20179;-46
2022/07/18 05:19:46;;;;;;;4.03;3.63;;;16.80;70.30;;;;;;5073175;28;20204;-46
2022/07/18 05:22:12;;;;;;;4.80;4.40;;;16.80;69.30;;;;;;5073560;28;20540;-46
2022/07/18 05:24:37;;;;;;;4.23;3.83;;;16.90;68.80;;;;;;5073684;28;20197;-46
2022/07/18 05:27:03;;;;;;;3.83;3.53;;;17.00;68.50;;;;;;5075012;28;20176;-47
2022/07/18 05:29:29;;;;;;;4.73;3.80;;;17.00;68.00;;;;;;5075342;28;20323;-46
2022/07/18 05:31:55;;;;;;;3.87;3.50;;;17.10;67.60;;;;;;5076455;28;20591;-46
2022/07/18 05:34:20;;;;;;;4.80;4.17;;;17.20;67.10;;;;;;5075224;28;20176;-45
2022/07/18 05:36:46;;;;;;;4.50;3.83;;;17.30;66.60;;;;;;5055698;28;20440;-45
2022/07/18 05:39:11;;;;;;;6.47;3.33;;;17.40;66.30;;;;;;5054680;28;20660;-47
2022/07/18 05:41:37;;;;;;;4.10;3.70;;;17.50;65.80;;;;;;5053186;28;20175;-47
2022/07/18 05:44:03;;;;;;;4.80;3.90;;;17.70;65.40;;;;;;5052033;28;20563;-47
2022/07/18 05:46:28;;;;;;;4.70;3.73;;;17.80;64.50;;;;;;5051675;28;20256;-48
2022/07/18 05:48:54;;;;;;;4.03;3.60;;;17.90;62.90;;;;;;5049792;28;20682;-44
2022/07/18 05:51:20;;;;;;;5.27;3.70;;;18.00;61.10;;;;;;5048373;28;20417;-45
2022/07/18 05:53:46;;;;;;;5.40;4.37;;;18.10;60.40;;;;;;5047297;28;20185;-44
2022/07/18 05:56:12;;;;;;;4.17;3.80;;;18.20;60.60;;;;;;5047245;28;20432;-44
2022/07/18 05:58:37;;;;;;;5.87;3.73;;;18.40;60.80;;;;;;5050332;28;20635;-45
2022/07/18 06:01:03;;;;;;;6.00;3.90;;;18.50;60.10;;;;;;5051275;28;20306;-45
2022/07/18 06:03:29;;;;;;;6.27;3.63;;;18.70;59.70;;;;;;5051427;28;20258;-47
2022/07/18 06:05:54;;;;;;;3.77;3.47;;;18.80;59.30;;;;;;5050863;28;20589;-49
2022/07/18 06:08:20;;;;;;;6.23;4.43;;;19.00;59.00;;;;;;5052038;28;20266;-46
2022/07/18 06:10:46;;;;;;;4.63;3.47;;;19.20;58.50;;;;;;5053534;28;20181;-45
2022/07/18 06:13:12;;;;;;;4.43;3.30;;;19.40;57.50;;;;;;5070156;28;20229;-46
2022/07/18 06:15:38;;;;;;;4.40;3.60;;;19.50;56.90;;;;;;5068976;28;20497;-45
2022/07/18 06:18:03;;;;;;;3.93;3.40;;;19.70;56.50;;;;;;5071287;28;20483;-48
2022/07/18 06:20:29;;;;;;;5.47;3.60;;;19.90;56.00;;;;;;5072309;28;20214;-46
2022/07/18 06:22:55;;;;;;;3.10;2.80;;;20.10;55.10;;;;;;5071928;28;20820;-48
2022/07/18 06:25:20;;;;;;;4.50;3.40;;;20.30;53.90;;;;;;5070813;28;20759;-47
2022/07/18 06:27:46;;;;;;;3.83;3.47;;;20.50;53.20;;;;;;5073099;28;20216;-45
2022/07/18 06:30:12;;;;;;;4.33;3.40;;;20.70;50.40;;;;;;5073346;28;20765;-48
2022/07/18 06:32:38;;;;;;;3.07;2.77;;;20.80;50.00;;;;;;5072391;28;20216;-46
2022/07/18 06:35:04;;;;;;;5.97;3.03;;;21.00;49.70;;;;;;5070865;28;20843;-45
2022/07/18 06:37:30;;;;;;;3.70;3.30;;;21.20;49.40;;;;;;5070484;28;20803;-47
2022/07/18 06:39:57;;;;;;;5.07;2.70;;;21.40;48.90;;;;;;5076302;28;20567;-46
2022/07/18 06:42:22;;;;;;;2.90;2.57;;;21.60;48.80;;;;;;5077850;28;20423;-46
2022/07/18 06:44:48;;;;;;;3.00;2.57;;;21.80;48.10;;;;;;5077069;28;20448;-47
2022/07/18 06:47:14;;;;;;;2.90;2.30;;;22.10;47.50;;;;;;5078134;28;20454;-46
2022/07/18 06:49:39;;;;;;;5.93;3.73;;;22.30;47.00;;;;;;5077893;28;20431;-45
2022/07/18 06:52:05;;;;;;;3.70;3.17;;;22.40;46.60;;;;;;5075902;28;20191;-46
2022/07/18 06:54:33;;;;;;;5.57;3.83;;;22.70;46.50;;;;;;5076228;28;20176;-48
2022/07/18 06:56:59;;;;;;;5.30;3.57;;;22.90;46.40;;;;;;5078762;28;20426;-48
2022/07/18 06:59:25;;;;;;;4.13;2.77;;;23.00;46.10;;;;;;5077975;28;20520;-46
2022/07/18 07:01:51;;;;;;;3.43;2.90;;;23.30;46.10;;;;;;5077596;28;20919;-46
2022/07/18 07:04:16;;;;;;;29.27;3.87;;;23.50;46.10;;;;;;5077657;28;20594;-46
2022/07/18 07:06:42;;;;;;;3.80;3.10;;;23.70;45.60;;;;;;5077017;28;20248;-46
2022/07/18 07:09:07;;;;;;;4.30;3.50;;;24.00;45.20;;;;;;5077781;28;20185;-46
2022/07/18 07:11:33;;;;;;;4.87;3.50;;;24.10;44.30;;;;;;5078727;28;20181;-47
2022/07/18 07:13:59;;;;;;;6.83;3.47;;;24.30;44.20;;;;;;5077889;28;20458;-48
2022/07/18 07:16:24;;;;;;;4.20;3.77;;;24.30;44.20;;;;;;5076928;28;20227;-47
2022/07/18 07:18:50;;;;;;;4.50;3.30;;;24.50;44.40;;;;;;5077515;28;20184;-46
2022/07/18 07:21:16;;;;;;;3.40;3.10;;;24.70;44.60;;;;;;5075745;28;20249;-49
2022/07/18 07:23:41;;;;;;;4.53;4.13;;;25.00;44.60;;;;;;5075993;28;20232;-45
2022/07/18 07:26:07;;;;;;;4.30;3.90;;;25.30;44.80;;;;;;5074692;28;20174;-51
2022/07/18 07:28:33;;;;;;;3.90;3.60;;;25.50;43.80;;;;;;5077107;28;20188;-47
2022/07/18 07:30:59;;;;;;;4.13;3.50;;;25.80;43.80;;;;;;5073866;28;21000;-47
2022/07/18 07:33:24;;;;;;;3.87;2.67;;;26.00;42.40;;;;;;5074934;28;20200;-48
2022/07/18 07:35:50;;;;;;;6.17;2.90;;;26.20;41.40;;;;;;5074268;28;20178;-49
2022/07/18 07:38:19;;;;;;;4.37;3.57;;;26.30;40.60;;;;;;5073817;28;20180;-48
2022/07/18 07:40:46;;;;;;;3.23;2.93;;;26.40;40.30;;;;;;5074932;28;20196;-46
2022/07/18 07:43:14;;;;;;;6.50;2.90;;;26.50;39.30;;;;;;5076430;28;20428;-46
2022/07/18 07:45:40;;;;;;;5.20;3.30;;;26.60;39.70;;;;;;5076781;28;20416;-47
2022/07/18 07:48:06;;;;;;;3.10;2.80;;;26.60;39.30;;;;;;5074531;28;20814;-50
2022/07/18 07:50:32;;;;;;;2.90;2.70;;;26.80;39.30;;;;;;5075512;28;20423;-49
2022/07/18 07:52:58;;;;;;;4.47;2.90;;;26.90;38.60;;;;;;5075752;28;20420;-47
2022/07/18 07:55:25;;;;;;;5.03;3.13;;;27.00;38.20;;;;;;5075918;28;20181;-46
2022/07/18 07:57:50;;;;;;;4.37;3.03;;;27.30;38.00;;;;;;5077026;28;20430;-44
2022/07/18 08:00:16;;;;;;;3.10;2.83;;;27.50;38.00;;;;;;5077397;28;20475;-46
2022/07/18 08:02:51;;;;;;;3.20;2.90;;;27.60;37.40;;;;;;5077155;28;20176;-45
2022/07/18 08:05:17;;;;;;;4.30;3.13;;;27.70;37.10;;;;;;5077047;28;20386;-47
2022/07/18 08:07:43;;;;;;;3.23;2.80;;;28.00;36.90;;;;;;5074400;28;20513;-47
2022/07/18 08:10:08;;;;;;;3.70;3.03;;;28.10;35.90;;;;;;5073691;28;20224;-46
2022/07/18 08:12:35;;;;;;;3.50;2.70;;;28.10;35.70;;;;;;5075116;28;20180;-47
2022/07/18 08:15:01;;;;;;;3.77;3.37;;;28.20;35.80;;;;;;5075796;28;20174;-49
2022/07/18 08:17:27;;;;;;;2.90;2.70;;;28.50;36.20;;;;;;5073931;28;20436;-47
2022/07/18 08:19:52;;;;;;;4.63;3.40;;;28.70;35.20;;;;;;5076259;28;20299;-46
2022/07/18 08:22:18;;;;;;;3.20;2.93;;;28.90;35.10;;;;;;5075268;28;20186;-47
2022/07/18 08:24:43;;;;;;;3.10;2.80;;;29.00;34.60;;;;;;5074618;28;20193;-47
2022/07/18 08:27:11;;;;;;;3.43;3.13;;;29.00;34.50;;;;;;5074011;28;20620;-46
2022/07/18 08:29:36;;;;;;;4.83;3.70;;;29.20;34.70;;;;;;5075153;28;20182;-49
2022/07/18 08:32:02;;;;;;;3.30;3.00;;;29.40;34.30;;;;;;5036650;28;1138523;-47
2022/07/18 08:34:28;;;;;;;3.70;3.40;;;29.50;34.50;;;;;;5077157;28;20209;-47
2022/07/18 08:36:53;;;;;;;3.80;3.50;;;29.60;34.40;;;;;;5077939;28;20198;-47
2022/07/18 08:39:19;;;;;;;4.40;3.33;;;29.70;34.00;;;;;;5075389;28;20268;-49
2022/07/18 08:41:48;;;;;;;3.23;3.03;;;29.90;34.80;;;;;;5073356;28;20268;-49
2022/07/18 08:44:13;;;;;;;3.67;3.37;;;30.00;35.20;;;;;;5071937;28;20240;-47
2022/07/18 08:46:40;;;;;;;3.50;3.03;;;30.10;34.90;;;;;;5073464;28;20419;-48
2022/07/18 08:49:07;;;;;;;4.40;3.67;;;30.30;34.80;;;;;;5072986;28;20656;-48
2022/07/18 08:51:35;;;;;;;5.70;3.17;;;30.50;34.30;;;;;;5072494;28;20567;-48
2022/07/18 08:54:02;;;;;;;3.50;3.20;;;30.60;33.80;;;;;;5074694;28;20433;-49
2022/07/18 08:56:27;;;;;;;3.60;3.30;;;30.70;33.10;;;;;;5074742;28;20423;-48
2022/07/18 08:58:53;;;;;;;3.30;3.10;;;30.60;32.10;;;;;;5075830;28;20500;-44
2022/07/18 09:01:19;;;;;;;3.43;3.13;;;30.60;31.50;;;;;;5074463;28;20208;-44
2022/07/18 09:04:14;;;;;;;3.43;3.23;;;30.70;31.20;;;;;;5073486;28;20289;-45
2022/07/18 09:06:42;;;;;;;3.03;2.83;;;30.80;31.20;;;;;;5074937;28;20829;-44
2022/07/18 09:09:07;;;;;;;3.50;3.20;;;31.20;30.90;;;;;;5075727;28;20411;-46
2022/07/18 09:11:33;;;;;;;4.37;2.80;;;31.40;30.30;;;;;;5073429;28;20395;-47
2022/07/18 09:13:59;;;;;;;2.70;2.50;;;31.70;30.00;;;;;;5072961;28;20471;-46
2022/07/18 09:16:26;;;;;;;3.40;3.10;;;31.90;30.20;;;;;;5076263;28;20253;-46
2022/07/18 09:18:52;;;;;;;3.80;3.40;;;32.00;30.70;;;;;;5075167;28;20180;-47
2022/07/18 09:21:22;;;;;;;3.47;3.20;;;32.20;30.10;;;;;;5073610;28;20873;-45
2022/07/18 09:23:50;;;;;;;2.83;2.63;;;32.30;30.20;;;;;;5072249;28;20566;-46
2022/07/18 09:26:52;;;;;;;3.27;2.97;;;32.60;30.00;;;;;;5073162;28;21047;-46
2022/07/18 09:29:18;;;;;;;3.50;3.20;;;32.50;29.60;;;;;;5033952;28;20426;-46
2022/07/18 09:31:54;;;;;;;3.37;3.07;;;32.90;30.30;;;;;;5066851;28;20445;-47
2022/07/18 09:34:37;;;;;;;3.43;3.13;;;33.30;29.50;;;;;;5075898;28;20180;-47
2022/07/18 09:37:03;;;;;;;3.23;2.93;;;33.50;29.00;;;;;;5075331;28;20456;-45
2022/07/18 09:39:29;;;;;;;3.50;3.20;;;33.90;29.40;;;;;;5074050;28;20382;-48
2022/07/18 09:42:20;;;;;;;14.10;5.20;;;34.40;29.80;;;;;;5072322;28;20391;-47
2022/07/18 09:45:01;;;;;;;43.53;12.07;;;34.90;29.60;;;;;;5073016;28;20387;-47
2022/07/18 09:47:26;;;;;;;3.80;3.20;;;35.40;29.10;;;;;;5072513;28;20722;-46
2022/07/18 09:49:52;;;;;;;3.33;2.90;;;35.60;28.00;;;;;;5070863;28;20493;-47
2022/07/18 09:52:19;;;;;;;3.23;2.93;;;35.70;27.70;;;;;;5070703;28;20280;-46
2022/07/18 09:54:44;;;;;;;3.90;3.50;;;35.60;27.80;;;;;;5070799;28;20566;-47
2022/07/18 09:57:23;;;;;;;3.90;3.60;;;35.40;28.00;;;;;;5070867;28;20454;-48
2022/07/18 09:59:49;;;;;;;3.63;3.20;;;34.90;27.90;;;;;;5070270;28;20367;-48
2022/07/18 10:02:15;;;;;;;3.80;3.50;;;34.80;28.10;;;;;;5071817;28;20736;-47
2022/07/18 10:04:40;;;;;;;8.30;4.50;;;34.90;27.70;;;;;;5055540;28;20190;-45
2022/07/18 10:07:06;;;;;;;3.30;3.00;;;34.80;27.70;;;;;;5074505;28;20185;-46
2022/07/18 10:09:32;;;;;;;3.07;2.87;;;34.90;27.80;;;;;;5074635;28;20183;-47
2022/07/18 10:11:58;;;;;;;3.00;2.80;;;34.50;27.70;;;;;;5056188;28;20202;-48
2022/07/18 10:14:26;;;;;;;3.47;3.20;;;34.40;28.10;;;;;;5073429;28;20520;-48
2022/07/18 10:16:52;;;;;;;2.90;2.70;;;34.40;27.60;;;;;;5074141;28;20910;-46
2022/07/18 10:19:17;;;;;;;3.10;2.53;;;34.70;27.70;;;;;;5073592;28;20412;-47
2022/07/18 10:21:47;;;;;;;3.60;3.30;;;35.10;28.00;;;;;;5074134;28;20171;-46
2022/07/18 10:24:13;;;;;;;2.70;2.50;;;35.60;27.30;;;;;;5072794;28;20181;-50
2022/07/18 10:26:38;;;;;;;3.10;2.80;;;35.80;27.40;;;;;;5055787;28;20393;-47
2022/07/18 10:29:04;;;;;;;2.80;2.60;;;35.80;27.20;;;;;;5071242;28;20421;-47
2022/07/18 10:31:38;;;;;;;2.97;2.63;;;36.10;27.00;;;;;;5072696;28;20224;-45
2022/07/18 10:34:06;;;;;;;2.50;2.30;;;35.90;26.80;;;;;;5073523;28;20175;-47
2022/07/18 10:36:34;;;;;;;2.90;2.60;;;35.60;26.80;;;;;;5072709;28;20419;-47
2022/07/18 10:39:08;;;;;;;3.00;2.80;;;35.60;27.10;;;;;;5070421;28;20513;-48
2022/07/18 10:41:54;;;;;;;3.10;2.80;;;35.90;27.00;;;;;;5073250;28;20455;-48
2022/07/18 10:44:31;;;;;;;2.30;2.10;;;35.90;26.30;;;;;;5070795;28;20669;-47
2022/07/18 10:47:03;;;;;;;3.03;2.40;;;35.90;26.50;;;;;;5073045;28;20382;-47
2022/07/18 10:49:49;;;;;;;2.23;2.03;;;36.20;26.00;;;;;;5069064;28;20400;-47
2022/07/18 10:52:29;;;;;;;2.43;2.20;;;35.70;26.10;;;;;;5069012;28;20416;-45
2022/07/18 10:55:23;;;;;;;2.67;2.47;;;35.60;26.70;;;;;;5069163;28;20678;-49
2022/07/18 10:57:49;;;;;;;2.57;2.37;;;35.40;26.30;;;;;;5065098;28;20429;-46
2022/07/18 11:00:23;;;;;;;2.87;2.60;;;35.50;26.40;;;;;;5067142;28;20460;-47
2022/07/18 11:03:09;;;;;;;3.07;2.77;;;35.80;26.30;;;;;;5068040;28;20170;-47
2022/07/18 11:05:41;;;;;;;3.73;3.03;;;35.90;26.30;;;;;;5069529;28;20932;-46
2022/07/18 11:08:17;;;;;;;3.63;2.40;;;35.80;26.40;;;;;;5071567;28;20710;-52
2022/07/18 11:10:44;;;;;;;3.43;2.50;;;35.90;26.20;;;;;;5069967;28;20711;-45
2022/07/18 11:13:27;;;;;;;3.30;3.00;;;36.30;26.70;;;;;;5069954;28;20685;-48
2022/07/18 11:16:21;;;;;;;2.90;2.70;;;37.10;26.50;;;;;;5069281;28;20400;-46
2022/07/18 11:18:47;;;;;;;4.30;2.80;;;38.00;25.90;;;;;;5063443;28;20658;-46
2022/07/18 11:21:28;;;;;;;3.00;2.70;;;38.30;25.80;;;;;;5067541;28;21111;-47
2022/07/18 11:24:03;;;;;;;2.67;2.47;;;38.70;25.00;;;;;;5071651;28;20708;-49
2022/07/18 11:26:30;;;;;;;2.80;2.60;;;39.10;24.80;;;;;;5069526;28;20422;-46
2022/07/18 11:29:09;;;;;;;2.67;2.47;;;38.90;24.70;;;;;;5067141;28;20710;-49
2022/07/18 11:31:49;;;;;;;2.50;2.30;;;38.10;25.10;;;;;;5067929;28;20444;-48
2022/07/18 11:34:15;;;;;;;2.97;2.67;;;37.60;25.50;;;;;;5066403;28;21005;-46
2022/07/18 11:36:42;;;;;;;3.07;2.73;;;37.50;25.50;;;;;;5067465;28;20390;-48
2022/07/18 11:39:09;;;;;;;2.97;2.67;;;37.60;25.50;;;;;;5068423;28;20676;-50
2022/07/18 11:41:37;;;;;;;3.33;3.03;;;37.50;25.60;;;;;;5071125;28;20994;-49
2022/07/18 11:44:03;;;;;;;3.00;2.47;;;37.80;25.60;;;;;;5072952;28;20424;-48
2022/07/18 11:46:29;;;;;;;10.90;3.43;;;38.00;25.40;;;;;;5072349;28;20437;-47
2022/07/18 11:49:00;;;;;;;2.63;2.40;;;38.60;25.50;;;;;;5075880;28;20198;-48
2022/07/18 11:51:32;;;;;;;5.10;2.40;;;38.50;25.20;;;;;;5073962;28;20695;-48
2022/07/18 11:53:58;;;;;;;2.63;2.33;;;38.40;25.10;;;;;;5071383;28;20460;-49
2022/07/18 11:56:23;;;;;;;2.80;2.60;;;38.20;25.50;;;;;;5073465;28;20465;-49
2022/07/18 11:58:49;;;;;;;2.73;2.43;;;38.50;25.60;;;;;;5074014;28;20202;-48
2022/07/18 12:01:16;;;;;;;3.57;3.10;;;38.30;25.40;;;;;;5073203;28;20626;-48
2022/07/18 12:03:44;;;;;;;2.83;2.63;;;38.90;26.20;;;;;;5072818;28;20819;-49
2022/07/18 12:06:28;;;;;;;2.73;2.53;;;39.00;24.60;;;;;;5074781;28;20971;-49
2022/07/18 12:09:03;;;;;;;2.60;2.40;;;38.90;25.00;;;;;;5076950;28;20434;-48
2022/07/18 12:11:34;;;;;;;5.80;2.60;;;38.70;24.70;;;;;;5077278;28;20394;-48
2022/07/18 12:14:08;;;;;;;4.93;2.70;;;38.70;25.50;;;;;;5076222;28;20429;-47
2022/07/18 12:16:40;;;;;;;7.23;2.80;;;39.40;26.10;;;;;;5074540;28;20740;-46
2022/07/18 12:19:13;;;;;;;3.03;2.73;;;40.20;25.70;;;;;;5076837;28;20882;-47
2022/07/18 12:21:51;;;;;;;3.07;2.30;;;41.00;25.10;;;;;;5075759;28;20494;-48
2022/07/18 12:24:27;;;;;;;5.53;2.37;;;41.70;24.60;;;;;;5076039;28;20489;-49
2022/07/18 12:27:22;;;;;;;19.20;4.30;;;42.10;23.80;;;;;;5075629;28;20465;-47
2022/07/18 12:30:07;;;;;;;6.00;2.60;;;42.60;24.40;;;;;;5077924;28;20435;-48
2022/07/18 12:32:42;;;;;;;2.40;2.20;;;43.10;23.90;;;;;;5077818;28;20888;-49
2022/07/18 12:35:13;;;;;;;3.43;2.50;;;43.40;23.50;;;;;;5075402;28;20421;-49
2022/07/18 12:37:39;;;;;;;2.70;2.50;;;43.20;23.20;;;;;;5076089;28;20456;-47
2022/07/18 12:40:08;;;;;;;4.57;3.47;;;43.10;23.40;;;;;;5077080;28;20481;-46
2022/07/18 12:42:36;;;;;;;2.87;2.50;;;43.10;23.70;;;;;;5077850;28;20189;-47
2022/07/18 12:45:02;;;;;;;2.40;2.20;;;43.10;23.60;;;;;;5077665;28;20427;-49
2022/07/18 12:47:28;;;;;;;2.90;2.70;;;43.20;23.10;;;;;;5073994;28;20440;-48
2022/07/18 12:49:54;;;;;;;2.87;2.67;;;43.40;23.50;;;;;;5074105;28;20469;-48
2022/07/18 12:52:19;;;;;;;3.00;2.80;;;43.70;23.40;;;;;;5072658;28;20195;-50
2022/07/18 12:54:46;;;;;;;3.10;2.60;;;44.00;23.30;;;;;;5073728;28;20467;-47